Hovedside
METAR-TAF:

METAR-TAF

Lufthavner :

Jakutsk, Russland

breddegrad: 62-01N, lengdegrad: 129-43E, høyde over havet: 103 m

Gjeldene værobservasjon

Denne rapporten ble laget for 27 minutter siden, klokken 21:00 UTC
Vind 4 kt fra Nord
Temperatur -42°C
Luftfuktighet 64%
Trykk 1016 hPa
Sikt: 1200 m
dis

METAR: UEEE 122100Z 36002MPS 1600 1200NE R23L/P2000N BR NSC M42/M46 Q1016 R23L/450150 NOSIG RMK QFE753

Tid: 06:27 (21:27 UTC)

Varsel

Denne rapporten ble laget for 1 time og 27 minutter siden, klokken 20:00 UTC
Varsel gyldig fra 12. klokken 21 UTC til 14. klokken 03 UTC
Vind 6 kt fra Nord
Sikt: 0700 m
tåke
Midlertidig
fra 12. klokken 21 UTC til 13. klokken 06 UTC
Sikt: 0300 m
i en høyde av 200 ft
snø, tåke

TAF: UEEE 122000Z 1221/1403 35003MPS 0700 FG NSC TXM39/1306Z TNM45/1223Z TEMPO 1221/1306 0300 SN FG VV002

Værobservasjoner og værvarsel for over 4000 flyplasser (METAR- og TAF-rapporter).

Tilgjengelige stasjoner er representert av de røde og gule prikkene på kartet.

Hold musepekeren over prikken for å se navnet på stasjonen.

Klikk så for å se værobservasjoner og -varsler.

For å forandre kartet kan du klikke på den grønne knappen med svart kryss for å zoome inn, på den grønne knappen med strek for å zoome ut, eller på de grønne pilene for å se tilstøtende kart.


METAR-TAF: